Time;durP1;ratioP1;P1;durP2;ratioP2;P2;SDS_P1;SDS_P2;PMS_P1;PMS_P2;Temp;Humidity;BMP_temperature;BMP_pressure;BME280_temperature;BME280_humidity;BME280_pressure;Samples;Min_cycle;Max_cycle;Signal;HPM_P1;HPM_P2
2023/07/16 00:01:02;;;;;;;3.90;2.85;;;;;;;;;;5134642;27;20027;-89
2023/07/16 00:03:27;;;;;;;4.00;3.03;;;;;;;;;;5134822;27;20029;-90
2023/07/16 00:05:53;;;;;;;2.78;2.50;;;;;;;;;;5134888;27;20027;-88
2023/07/16 00:08:19;;;;;;;3.70;2.65;;;;;;;;;;5115210;27;20389;-87
2023/07/16 00:10:44;;;;;;;4.50;3.42;;;;;;;;;;5134189;27;20027;-89
2023/07/16 00:13:10;;;;;;;3.58;2.22;;;;;;;;;;5115858;27;20031;-90
2023/07/16 00:15:36;;;;;;;3.38;2.80;;;;;;;;;;5135335;27;20034;-89
2023/07/16 00:18:01;;;;;;;3.97;2.63;;;;;;;;;;5117193;27;20031;-87
2023/07/16 00:20:28;;;;;;;6.65;3.17;;;;;;;;;;5138464;27;20019;-87
2023/07/16 00:22:54;;;;;;;3.42;2.63;;;;;;;;;;5135416;27;20027;-88
2023/07/16 00:25:20;;;;;;;4.38;3.42;;;;;;;;;;5116327;27;20712;-89
2023/07/16 00:27:46;;;;;;;2.45;1.95;;;;;;;;;;5119243;27;20042;-89
2023/07/16 00:30:12;;;;;;;5.47;3.47;;;;;;;;;;5128542;27;20022;-90
2023/07/16 00:32:38;;;;;;;3.80;2.70;;;;;;;;;;5110757;27;20478;-89
2023/07/16 00:35:05;;;;;;;2.42;1.80;;;;;;;;;;5132615;27;20023;-90
2023/07/16 00:37:31;;;;;;;3.53;2.58;;;;;;;;;;5115575;27;20389;-88
2023/07/16 00:39:56;;;;;;;3.85;2.83;;;;;;;;;;5112555;27;20027;-89
2023/07/16 00:42:22;;;;;;;3.05;2.72;;;;;;;;;;5115696;27;20191;-89
2023/07/16 00:44:48;;;;;;;7.43;3.45;;;;;;;;;;5134390;27;20019;-89
2023/07/16 00:47:16;;;;;;;4.03;2.85;;;;;;;;;;5116966;27;20114;-88
2023/07/16 00:49:42;;;;;;;4.97;2.60;;;;;;;;;;5133994;27;20435;-90
2023/07/16 00:52:14;;;;;;;3.88;3.15;;;;;;;;;;5116819;27;20023;-89
2023/07/16 00:54:39;;;;;;;3.80;2.88;;;;;;;;;;5137322;27;20027;-88
2023/07/16 00:57:07;;;;;;;3.33;2.70;;;;;;;;;;5133205;27;20433;-89
2023/07/16 00:59:33;;;;;;;3.03;2.45;;;;;;;;;;5129062;27;20027;-88
2023/07/16 01:01:59;;;;;;;3.83;2.58;;;;;;;;;;5111318;27;20068;-89
2023/07/16 01:04:27;;;;;;;4.28;3.05;;;;;;;;;;5119017;27;20015;-87
2023/07/16 01:06:57;;;;;;;4.77;3.40;;;;;;;;;;5118143;28;20079;-90
2023/07/16 01:09:24;;;;;;;3.65;2.92;;;;;;;;;;5117791;28;20302;-88
2023/07/16 01:11:51;;;;;;;2.70;2.10;;;;;;;;;;5117210;28;20031;-89
2023/07/16 01:14:18;;;;;;;9.80;2.85;;;;;;;;;;5108020;28;20110;-85
2023/07/16 01:16:43;;;;;;;2.95;2.65;;;;;;;;;;5130872;28;20034;-86
2023/07/16 01:19:10;;;;;;;3.53;2.83;;;;;;;;;;5134863;28;20027;-86
2023/07/16 01:21:40;;;;;;;3.67;2.45;;;;;;;;;;5114413;28;20110;-87
2023/07/16 01:24:18;;;;;;;3.75;2.58;;;;;;;;;;5130610;28;20033;-86
2023/07/16 01:26:52;;;;;;;5.30;3.00;;;;;;;;;;5132439;28;20020;-86
2023/07/16 01:29:40;;;;;;;3.72;2.47;;;;;;;;;;5134152;28;20412;-87
2023/07/16 01:32:07;;;;;;;3.75;2.78;;;;;;;;;;5132466;28;20031;-86
2023/07/16 01:34:36;;;;;;;4.00;3.38;;;;;;;;;;5115266;28;20027;-87
2023/07/16 01:37:03;;;;;;;5.07;3.45;;;;;;;;;;5116001;28;20109;-88
2023/07/16 01:39:30;;;;;;;3.80;2.42;;;;;;;;;;5130586;28;20027;-88
2023/07/16 01:41:55;;;;;;;3.55;2.50;;;;;;;;;;5135668;27;20047;-87
2023/07/16 01:44:21;;;;;;;4.97;3.28;;;;;;;;;;5137964;27;20024;-87
2023/07/16 01:47:09;;;;;;;11.38;2.15;;;;;;;;;;5137873;27;20098;-88
2023/07/16 01:49:34;;;;;;;5.18;3.30;;;;;;;;;;5115771;27;20428;-88
2023/07/16 01:52:01;;;;;;;4.00;2.67;;;;;;;;;;5137684;27;20027;-87
2023/07/16 01:54:27;;;;;;;5.45;3.08;;;;;;;;;;5137402;27;20035;-87
2023/07/16 01:56:52;;;;;;;6.03;3.35;;;;;;;;;;5135880;27;20034;-88
2023/07/16 01:59:18;;;;;;;6.60;3.03;;;;;;;;;;5113905;27;20019;-86
2023/07/16 02:01:43;;;;;;;5.13;3.92;;;;;;;;;;5136695;27;20027;-87
2023/07/16 02:04:09;;;;;;;3.53;2.58;;;;;;;;;;5136161;27;20023;-85
2023/07/16 02:06:34;;;;;;;3.60;2.42;;;;;;;;;;5135798;27;20075;-86
2023/07/16 02:09:00;;;;;;;3.10;2.55;;;;;;;;;;5136793;27;20019;-87
2023/07/16 02:11:25;;;;;;;3.35;2.65;;;;;;;;;;5136764;27;20037;-86
2023/07/16 02:13:51;;;;;;;4.63;3.05;;;;;;;;;;5117856;27;20492;-88
2023/07/16 02:16:16;;;;;;;4.85;3.42;;;;;;;;;;5135023;27;20031;-87
2023/07/16 02:18:42;;;;;;;4.30;3.03;;;;;;;;;;5136954;27;20030;-85
2023/07/16 02:21:07;;;;;;;4.10;2.88;;;;;;;;;;5118742;27;20121;-86
2023/07/16 02:23:33;;;;;;;3.45;2.78;;;;;;;;;;5135946;27;20390;-89
2023/07/16 02:26:01;;;;;;;5.07;3.88;;;;;;;;;;5135185;27;20019;-88
2023/07/16 02:28:26;;;;;;;3.88;2.72;;;;;;;;;;5134685;27;20824;-87
2023/07/16 02:30:52;;;;;;;3.80;2.35;;;;;;;;;;5136262;27;20023;-87
2023/07/16 02:33:17;;;;;;;3.08;2.45;;;;;;;;;;5114152;27;20102;-87
2023/07/16 02:35:51;;;;;;;4.30;2.75;;;;;;;;;;5136938;27;20027;-86
2023/07/16 02:38:17;;;;;;;5.72;3.55;;;;;;;;;;5117534;27;20026;-88
2023/07/16 02:40:47;;;;;;;3.67;3.08;;;;;;;;;;5116795;27;20027;-86
2023/07/16 02:43:12;;;;;;;3.47;2.80;;;;;;;;;;5135739;27;20023;-86
2023/07/16 02:45:42;;;;;;;5.97;3.78;;;;;;;;;;5116259;27;20471;-89
2023/07/16 02:48:08;;;;;;;5.82;3.30;;;;;;;;;;5138038;27;20023;-90
2023/07/16 02:50:35;;;;;;;6.95;2.35;;;;;;;;;;5120326;27;20108;-88
2023/07/16 02:53:02;;;;;;;3.20;2.33;;;;;;;;;;5119182;27;20035;-89
2023/07/16 02:55:29;;;;;;;3.17;2.60;;;;;;;;;;5133546;27;20478;-89
2023/07/16 02:57:55;;;;;;;3.55;2.53;;;;;;;;;;5117513;27;20054;-87
2023/07/16 03:00:21;;;;;;;3.00;2.20;;;;;;;;;;5134858;27;20051;-91
2023/07/16 03:02:48;;;;;;;3.47;2.90;;;;;;;;;;5133231;27;20082;-89
2023/07/16 03:05:15;;;;;;;4.28;3.00;;;;;;;;;;5113936;27;20070;-89
2023/07/16 03:07:43;;;;;;;4.53;2.90;;;;;;;;;;5116401;27;20027;-90
2023/07/16 03:10:09;;;;;;;3.40;3.10;;;;;;;;;;5137904;27;20046;-90
2023/07/16 03:12:34;;;;;;;4.43;2.40;;;;;;;;;;5113644;27;20030;-91
2023/07/16 03:15:00;;;;;;;4.65;3.50;;;;;;;;;;5117198;27;20023;-89
2023/07/16 03:17:25;;;;;;;3.60;2.42;;;;;;;;;;5117421;27;20018;-88
2023/07/16 03:19:51;;;;;;;3.55;2.85;;;;;;;;;;5118959;27;20026;-87
2023/07/16 03:22:17;;;;;;;7.60;3.20;;;;;;;;;;5118823;27;20080;-90
2023/07/16 03:24:42;;;;;;;4.25;3.05;;;;;;;;;;5136794;27;20022;-91
2023/07/16 03:27:08;;;;;;;4.72;3.13;;;;;;;;;;5119554;27;20760;-91
2023/07/16 03:29:34;;;;;;;7.53;3.10;;;;;;;;;;5118336;27;20023;-88
2023/07/16 03:31:59;;;;;;;4.82;2.67;;;;;;;;;;5133645;27;20084;-90
2023/07/16 03:34:25;;;;;;;7.97;3.05;;;;;;;;;;5117096;27;20021;-91
2023/07/16 03:36:50;;;;;;;3.53;2.67;;;;;;;;;;5113527;27;20035;-89
2023/07/16 03:39:16;;;;;;;3.45;2.85;;;;;;;;;;5115402;27;20030;-88
2023/07/16 03:41:42;;;;;;;4.70;3.08;;;;;;;;;;5116577;27;20131;-90
2023/07/16 03:44:07;;;;;;;3.72;3.00;;;;;;;;;;5116518;27;20095;-88
2023/07/16 03:46:33;;;;;;;3.70;3.00;;;;;;;;;;5131793;27;20027;-87
2023/07/16 03:48:59;;;;;;;4.60;2.78;;;;;;;;;;5114884;27;20037;-89
2023/07/16 03:51:24;;;;;;;2.33;2.10;;;;;;;;;;5117157;27;20386;-88
2023/07/16 03:53:50;;;;;;;4.20;3.47;;;;;;;;;;5136215;27;20030;-91
2023/07/16 03:56:15;;;;;;;3.35;2.38;;;;;;;;;;5116979;27;20794;-89
2023/07/16 03:58:41;;;;;;;4.47;3.42;;;;;;;;;;5114589;27;20030;-89
2023/07/16 04:01:07;;;;;;;3.35;2.95;;;;;;;;;;5114113;27;20023;-89
2023/07/16 04:03:32;;;;;;;3.78;2.67;;;;;;;;;;5115321;28;20398;-90
2023/07/16 04:06:11;;;;;;;3.22;2.08;;;;;;;;;;5117004;27;20023;-92
2023/07/16 04:08:37;;;;;;;4.78;3.10;;;;;;;;;;5133842;27;20498;-89
2023/07/16 04:11:06;;;;;;;3.08;2.33;;;;;;;;;;5131995;27;20110;-91
2023/07/16 04:13:35;;;;;;;4.13;2.97;;;;;;;;;;5110278;27;20482;-90
2023/07/16 04:16:30;;;;;;;3.47;3.17;;;;;;;;;;5120262;27;20443;-94
2023/07/16 04:19:04;;;;;;;2.20;1.98;;;;;;;;;;5084155;27;20035;-90
2023/07/16 04:21:30;;;;;;;4.10;2.60;;;;;;;;;;5137941;27;20023;-91
2023/07/16 04:24:11;;;;;;;3.33;2.55;;;;;;;;;;5138633;27;20390;-92
2023/07/16 04:26:36;;;;;;;3.30;2.33;;;;;;;;;;5117857;27;20034;-91
2023/07/16 04:29:08;;;;;;;3.42;2.58;;;;;;;;;;5118480;27;20427;-90
2023/07/16 04:31:35;;;;;;;4.40;3.03;;;;;;;;;;5112239;27;20035;-88
2023/07/16 04:34:01;;;;;;;4.00;2.30;;;;;;;;;;5112164;27;20035;-90
2023/07/16 04:36:26;;;;;;;2.80;2.15;;;;;;;;;;5115189;27;20046;-91
2023/07/16 04:38:52;;;;;;;4.63;2.78;;;;;;;;;;5133309;27;20347;-89
2023/07/16 04:41:35;;;;;;;5.10;3.10;;;;;;;;;;5112403;27;20191;-91
2023/07/16 04:44:01;;;;;;;3.78;2.53;;;;;;;;;;5133440;27;20041;-87
2023/07/16 04:46:26;;;;;;;4.00;2.28;;;;;;;;;;5130269;27;20027;-84
2023/07/16 04:48:53;;;;;;;2.80;2.22;;;;;;;;;;5112405;27;20030;-88
2023/07/16 04:51:18;;;;;;;4.43;2.10;;;;;;;;;;5131289;27;20027;-89
2023/07/16 04:53:44;;;;;;;2.28;2.08;;;;;;;;;;5115631;28;20030;-88
2023/07/16 04:56:16;;;;;;;4.65;2.17;;;;;;;;;;5114548;27;20084;-89
2023/07/16 04:58:45;;;;;;;3.55;2.40;;;;;;;;;;5127767;27;20029;-87
2023/07/16 05:01:11;;;;;;;3.10;2.17;;;;;;;;;;5133038;27;20030;-88
2023/07/16 05:03:37;;;;;;;2.20;1.63;;;;;;;;;;5113774;28;20114;-88
2023/07/16 05:06:03;;;;;;;3.00;2.00;;;;;;;;;;5130015;27;20454;-89
2023/07/16 05:08:28;;;;;;;2.85;2.00;;;;;;;;;;5112747;28;20033;-87
2023/07/16 05:10:54;;;;;;;3.25;2.13;;;;;;;;;;5130588;28;20023;-87
2023/07/16 05:13:19;;;;;;;2.95;2.08;;;;;;;;;;5132962;28;20463;-90
2023/07/16 05:15:45;;;;;;;2.60;1.88;;;;;;;;;;5132843;27;20024;-88
2023/07/16 05:18:10;;;;;;;2.55;1.83;;;;;;;;;;5137725;27;20030;-85
2023/07/16 05:20:36;;;;;;;3.45;2.03;;;;;;;;;;5136309;27;20034;-86
2023/07/16 05:23:02;;;;;;;3.00;2.08;;;;;;;;;;5136545;27;20415;-85
2023/07/16 05:25:27;;;;;;;1.83;1.38;;;;;;;;;;5134399;27;20062;-85
2023/07/16 05:27:53;;;;;;;3.00;2.20;;;;;;;;;;5135400;27;20031;-89
2023/07/16 05:30:18;;;;;;;1.67;1.38;;;;;;;;;;5134788;27;20033;-88
2023/07/16 05:32:44;;;;;;;2.33;1.83;;;;;;;;;;5116906;27;20030;-86
2023/07/16 05:35:09;;;;;;;2.88;2.28;;;;;;;;;;5135782;27;20027;-88
2023/07/16 05:37:35;;;;;;;2.90;1.55;;;;;;;;;;5116890;27;20035;-88
2023/07/16 05:40:00;;;;;;;2.63;1.95;;;;;;;;;;5132569;27;20023;-87
2023/07/16 05:42:26;;;;;;;3.95;1.92;;;;;;;;;;5134630;27;20074;-88
2023/07/16 05:44:51;;;;;;;1.83;1.48;;;;;;;;;;5135936;27;20020;-88
2023/07/16 05:47:17;;;;;;;2.67;1.92;;;;;;;;;;5135546;27;20023;-88
2023/07/16 05:49:42;;;;;;;2.80;1.45;;;;;;;;;;5114720;27;20474;-85
2023/07/16 05:52:09;;;;;;;8.65;2.85;;;;;;;;;;5117395;27;20033;-86
2023/07/16 05:54:34;;;;;;;1.73;1.50;;;;;;;;;;5128378;27;20031;-87
2023/07/16 05:57:00;;;;;;;2.42;1.90;;;;;;;;;;5133960;27;20053;-83
2023/07/16 05:59:26;;;;;;;3.10;2.08;;;;;;;;;;5132242;27;20053;-84
2023/07/16 06:01:51;;;;;;;2.75;2.08;;;;;;;;;;5133587;27;20023;-85
2023/07/16 06:04:17;;;;;;;2.70;1.83;;;;;;;;;;5133873;27;20123;-85
2023/07/16 06:06:42;;;;;;;1.90;1.52;;;;;;;;;;5135572;27;20023;-86
2023/07/16 06:09:08;;;;;;;1.92;1.38;;;;;;;;;;5135794;27;20038;-85
2023/07/16 06:11:33;;;;;;;2.45;1.80;;;;;;;;;;5111622;27;20571;-86
2023/07/16 06:13:59;;;;;;;6.32;2.03;;;;;;;;;;5136018;27;20024;-88
2023/07/16 06:16:24;;;;;;;0.93;0.90;;;;;;;;;;5135066;27;20087;-86
2023/07/16 06:18:50;;;;;;;2.92;1.90;;;;;;;;;;5124134;27;20110;-86
2023/07/16 06:21:15;;;;;;;1.35;1.17;;;;;;;;;;5116556;27;20180;-87
2023/07/16 06:23:47;;;;;;;1.42;1.23;;;;;;;;;;5133519;27;20030;-88
2023/07/16 06:26:12;;;;;;;1.80;1.08;;;;;;;;;;5132023;27;20496;-85
2023/07/16 06:28:37;;;;;;;1.42;0.90;;;;;;;;;;5134534;27;20059;-87
2023/07/16 06:31:03;;;;;;;1.08;0.98;;;;;;;;;;5134367;27;20043;-86
2023/07/16 06:33:28;;;;;;;0.95;0.85;;;;;;;;;;5133521;27;20382;-87
2023/07/16 06:35:54;;;;;;;1.58;1.35;;;;;;;;;;5116376;27;20035;-86
2023/07/16 06:38:19;;;;;;;1.60;1.25;;;;;;;;;;5132318;27;20030;-86
2023/07/16 06:40:49;;;;;;;1.33;1.17;;;;;;;;;;5134872;27;20027;-85
2023/07/16 06:43:14;;;;;;;;;;;;;;;;;;5116829;27;20533;-85
2023/07/16 06:45:40;;;;;;;1.80;1.38;;;;;;;;;;5134807;27;19998;-85
2023/07/16 06:48:06;;;;;;;1.42;1.33;;;;;;;;;;5115337;27;20050;-87
2023/07/16 06:50:31;;;;;;;1.58;1.05;;;;;;;;;;5131758;27;20463;-86
2023/07/16 06:52:56;;;;;;;1.10;0.98;;;;;;;;;;5134913;27;20375;-86
2023/07/16 06:55:22;;;;;;;2.67;1.50;;;;;;;;;;5135008;27;20420;-87
2023/07/16 06:57:47;;;;;;;2.65;1.77;;;;;;;;;;5132433;27;20550;-89
2023/07/16 07:00:13;;;;;;;1.20;1.02;;;;;;;;;;5134016;27;20125;-87
2023/07/16 07:02:38;;;;;;;2.00;1.40;;;;;;;;;;5133963;27;20027;-87
2023/07/16 07:05:04;;;;;;;1.52;1.20;;;;;;;;;;5134896;27;20049;-89
2023/07/16 07:07:30;;;;;;;1.33;1.00;;;;;;;;;;5114199;27;20054;-87
2023/07/16 07:09:55;;;;;;;1.35;0.95;;;;;;;;;;5134180;27;20034;-87
2023/07/16 07:12:21;;;;;;;1.85;1.38;;;;;;;;;;5132421;27;20019;-87
2023/07/16 07:14:47;;;;;;;3.17;1.38;;;;;;;;;;5113902;27;20489;-86
2023/07/16 07:17:13;;;;;;;1.40;1.15;;;;;;;;;;5115036;27;20027;-86
2023/07/16 07:19:38;;;;;;;2.53;1.63;;;;;;;;;;5133661;27;20038;-86
2023/07/16 07:22:04;;;;;;;2.42;1.73;;;;;;;;;;5133303;27;20042;-88
2023/07/16 07:24:29;;;;;;;2.60;1.50;;;;;;;;;;5133244;27;20478;-86
2023/07/16 07:26:55;;;;;;;1.33;1.23;;;;;;;;;;5133883;27;20030;-87
2023/07/16 07:29:20;;;;;;;1.58;1.05;;;;;;;;;;5115374;27;20355;-88
2023/07/16 07:31:45;;;;;;;1.90;1.23;;;;;;;;;;5131475;27;20479;-89
2023/07/16 07:34:11;;;;;;;1.92;1.40;;;;;;;;;;5129980;27;20035;-88
2023/07/16 07:36:36;;;;;;;1.95;1.65;;;;;;;;;;5133270;27;20030;-86
2023/07/16 07:39:02;;;;;;;3.50;1.30;;;;;;;;;;5132368;27;20035;-88
2023/07/16 07:41:27;;;;;;;1.20;1.02;;;;;;;;;;5142632;27;20043;-89
2023/07/16 07:43:53;;;;;;;1.80;1.33;;;;;;;;;;5127643;27;20030;-88
2023/07/16 07:46:18;;;;;;;1.73;1.40;;;;;;;;;;5129824;27;20068;-88
2023/07/16 07:48:44;;;;;;;3.30;1.70;;;;;;;;;;5113355;27;20034;-86
2023/07/16 07:51:09;;;;;;;2.58;1.58;;;;;;;;;;5129032;27;20025;-85
2023/07/16 07:53:34;;;;;;;1.73;1.30;;;;;;;;;;5133495;27;20023;-88
2023/07/16 07:56:00;;;;;;;1.90;1.38;;;;;;;;;;5114964;27;20076;-85
2023/07/16 07:58:25;;;;;;;1.92;1.52;;;;;;;;;;5133240;27;20031;-84
2023/07/16 08:00:51;;;;;;;2.78;1.85;;;;;;;;;;5112444;27;20023;-87
2023/07/16 08:03:16;;;;;;;1.08;0.77;;;;;;;;;;5132437;27;20042;-88
2023/07/16 08:05:42;;;;;;;2.30;1.30;;;;;;;;;;5114782;27;20023;-85
2023/07/16 08:08:07;;;;;;;2.08;1.38;;;;;;;;;;5131013;27;20023;-88
2023/07/16 08:10:33;;;;;;;1.85;1.67;;;;;;;;;;5132888;27;20027;-88
2023/07/16 08:12:59;;;;;;;1.55;1.23;;;;;;;;;;5133036;27;20415;-88
2023/07/16 08:15:24;;;;;;;2.03;1.45;;;;;;;;;;5134039;27;20019;-87
2023/07/16 08:17:50;;;;;;;2.47;1.60;;;;;;;;;;5133519;27;20069;-85
2023/07/16 08:20:15;;;;;;;2.65;1.90;;;;;;;;;;5127427;27;20016;-88
2023/07/16 08:22:41;;;;;;;1.52;1.23;;;;;;;;;;5127692;27;20026;-89
2023/07/16 08:25:07;;;;;;;2.65;1.63;;;;;;;;;;5108851;27;20031;-85
2023/07/16 08:27:34;;;;;;;2.00;1.60;;;;;;;;;;5113598;27;20031;-84
2023/07/16 08:30:00;;;;;;;1.50;1.40;;;;;;;;;;5131704;27;20110;-85
2023/07/16 08:32:25;;;;;;;1.95;1.75;;;;;;;;;;5111854;27;20101;-85
2023/07/16 08:34:51;;;;;;;3.58;2.22;;;;;;;;;;5130681;27;20026;-85
2023/07/16 08:37:16;;;;;;;2.10;1.60;;;;;;;;;;5131547;27;20023;-85
2023/07/16 08:39:43;;;;;;;2.47;1.77;;;;;;;;;;5126457;27;20058;-85
2023/07/16 08:42:10;;;;;;;2.58;1.88;;;;;;;;;;5131245;27;20035;-86
2023/07/16 08:44:39;;;;;;;1.98;1.67;;;;;;;;;;5131265;27;20549;-86
2023/07/16 08:47:06;;;;;;;2.15;1.63;;;;;;;;;;5131157;27;20051;-84
2023/07/16 08:49:33;;;;;;;2.60;1.92;;;;;;;;;;5131292;27;20376;-84
2023/07/16 08:52:04;;;;;;;2.17;1.48;;;;;;;;;;5131739;27;20450;-84
2023/07/16 08:54:29;;;;;;;2.22;1.63;;;;;;;;;;5130225;27;20034;-86
2023/07/16 08:56:56;;;;;;;3.00;1.90;;;;;;;;;;5129773;27;20482;-86
2023/07/16 08:59:22;;;;;;;2.50;1.95;;;;;;;;;;5112496;28;20030;-85
2023/07/16 09:01:48;;;;;;;7.55;2.38;;;;;;;;;;5131699;27;20106;-85
2023/07/16 09:04:15;;;;;;;3.83;2.40;;;;;;;;;;5130915;27;20424;-85
2023/07/16 09:06:40;;;;;;;2.15;1.77;;;;;;;;;;5131189;27;20554;-83
2023/07/16 09:09:06;;;;;;;3.25;2.50;;;;;;;;;;5131158;27;20126;-83
2023/07/16 09:11:33;;;;;;;2.78;1.90;;;;;;;;;;5112372;27;20027;-84
2023/07/16 09:14:01;;;;;;;2.38;1.92;;;;;;;;;;5129616;27;20042;-82
2023/07/16 09:16:31;;;;;;;2.00;1.70;;;;;;;;;;5126603;28;20019;-84
2023/07/16 09:19:06;;;;;;;5.30;2.28;;;;;;;;;;5131025;28;20522;-83
2023/07/16 09:21:34;;;;;;;3.17;1.92;;;;;;;;;;5127261;28;20497;-82
2023/07/16 09:24:00;;;;;;;3.72;2.83;;;;;;;;;;5130754;28;20023;-83
2023/07/16 09:26:25;;;;;;;2.72;2.05;;;;;;;;;;5131364;28;20064;-83
2023/07/16 09:28:51;;;;;;;5.20;2.20;;;;;;;;;;5128040;28;20019;-80
2023/07/16 09:31:16;;;;;;;4.18;2.00;;;;;;;;;;5129325;27;20029;-81
2023/07/16 09:33:46;;;;;;;3.72;2.65;;;;;;;;;;5112634;28;20059;-81
2023/07/16 09:36:11;;;;;;;3.33;2.35;;;;;;;;;;5130372;28;20034;-81
2023/07/16 09:38:37;;;;;;;2.03;1.45;;;;;;;;;;5131320;28;20019;-84
2023/07/16 09:41:03;;;;;;;2.45;1.90;;;;;;;;;;5130556;28;20039;-83
2023/07/16 09:43:28;;;;;;;4.28;1.88;;;;;;;;;;5128900;28;20027;-85
2023/07/16 09:45:54;;;;;;;2.45;1.75;;;;;;;;;;5129238;27;20019;-83
2023/07/16 09:48:19;;;;;;;3.95;2.47;;;;;;;;;;5130393;28;20023;-84
2023/07/16 09:50:53;;;;;;;2.95;1.55;;;;;;;;;;5113425;28;20084;-83
2023/07/16 09:53:20;;;;;;;3.17;2.30;;;;;;;;;;5130955;28;20359;-83
2023/07/16 09:55:47;;;;;;;2.20;1.55;;;;;;;;;;5130706;28;20421;-83
2023/07/16 09:58:14;;;;;;;2.58;1.65;;;;;;;;;;5129860;28;20057;-85
2023/07/16 10:00:41;;;;;;;3.92;2.05;;;;;;;;;;5128190;28;20432;-83
2023/07/16 10:03:08;;;;;;;3.45;2.00;;;;;;;;;;5132422;27;20039;-84
2023/07/16 10:05:37;;;;;;;2.67;1.50;;;;;;;;;;5132066;27;20023;-84
2023/07/16 10:08:02;;;;;;;1.77;1.48;;;;;;;;;;5135058;27;20489;-84
2023/07/16 10:10:53;;;;;;;3.30;1.88;;;;;;;;;;5133020;27;20039;-84
2023/07/16 10:13:22;;;;;;;2.88;2.00;;;;;;;;;;5133837;27;20026;-84
2023/07/16 10:15:55;;;;;;;3.53;2.42;;;;;;;;;;5128435;27;20118;-83
2023/07/16 10:18:33;;;;;;;3.42;2.42;;;;;;;;;;5128148;27;20035;-84
2023/07/16 10:21:08;;;;;;;3.70;2.60;;;;;;;;;;5115809;27;20058;-84
2023/07/16 10:23:41;;;;;;;2.53;1.75;;;;;;;;;;5133126;27;20042;-85
2023/07/16 10:26:09;;;;;;;2.67;2.13;;;;;;;;;;5133873;27;20027;-85
2023/07/16 10:28:36;;;;;;;2.78;1.95;;;;;;;;;;5127084;27;20035;-84
2023/07/16 10:31:01;;;;;;;2.83;2.05;;;;;;;;;;5117583;27;20027;-86
2023/07/16 10:33:27;;;;;;;2.40;1.88;;;;;;;;;;5132081;27;20045;-84
2023/07/16 10:35:53;;;;;;;2.80;1.92;;;;;;;;;;5115548;27;20076;-83
2023/07/16 10:38:18;;;;;;;2.22;1.92;;;;;;;;;;5133884;27;20058;-85
2023/07/16 10:40:45;;;;;;;2.00;1.50;;;;;;;;;;5131937;27;20388;-86
2023/07/16 10:43:11;;;;;;;3.25;2.28;;;;;;;;;;5133306;27;20105;-85
2023/07/16 10:45:38;;;;;;;4.13;2.33;;;;;;;;;;5133979;27;20067;-84
2023/07/16 10:48:04;;;;;;;3.45;2.70;;;;;;;;;;5113644;27;20432;-84
2023/07/16 10:50:32;;;;;;;4.50;2.10;;;;;;;;;;5130420;27;20375;-84
2023/07/16 10:52:58;;;;;;;2.47;1.95;;;;;;;;;;5130992;27;20027;-84
2023/07/16 10:55:26;;;;;;;4.05;2.75;;;;;;;;;;5116108;27;20027;-84
2023/07/16 10:57:52;;;;;;;2.80;2.22;;;;;;;;;;5131241;27;20471;-85
2023/07/16 11:00:18;;;;;;;2.58;1.95;;;;;;;;;;5133656;27;20035;-85
2023/07/16 11:02:44;;;;;;;5.05;2.50;;;;;;;;;;5134100;27;20027;-89
2023/07/16 11:05:14;;;;;;;3.35;2.40;;;;;;;;;;5114876;27;20015;-86
2023/07/16 11:07:47;;;;;;;3.72;2.00;;;;;;;;;;5131292;27;20493;-85
2023/07/16 11:10:15;;;;;;;2.80;1.85;;;;;;;;;;5130851;27;20027;-85
2023/07/16 11:12:41;;;;;;;2.33;1.60;;;;;;;;;;5133176;27;20019;-84
2023/07/16 11:15:08;;;;;;;2.67;2.10;;;;;;;;;;5113325;27;20475;-84
2023/07/16 11:17:33;;;;;;;3.33;2.40;;;;;;;;;;5131403;27;20076;-85
2023/07/16 11:20:00;;;;;;;3.30;2.38;;;;;;;;;;5114958;27;20357;-86
2023/07/16 11:22:26;;;;;;;3.22;1.75;;;;;;;;;;5127938;27;20055;-84
2023/07/16 11:24:53;;;;;;;2.40;1.67;;;;;;;;;;5126552;27;20023;-87
2023/07/16 11:27:22;;;;;;;4.15;2.40;;;;;;;;;;5132644;27;20076;-89
2023/07/16 11:29:50;;;;;;;3.05;2.13;;;;;;;;;;5133138;27;20061;-85
2023/07/16 11:32:34;;;;;;;4.90;2.67;;;;;;;;;;5133003;27;20031;-87
2023/07/16 11:35:01;;;;;;;5.95;3.17;;;;;;;;;;5130306;27;20027;-85
2023/07/16 11:37:28;;;;;;;3.83;2.53;;;;;;;;;;5133093;27;20483;-86
2023/07/16 11:40:05;;;;;;;4.00;2.20;;;;;;;;;;5131750;27;20087;-86
2023/07/16 11:42:39;;;;;;;5.18;2.53;;;;;;;;;;5127740;27;20095;-85
2023/07/16 11:45:14;;;;;;;2.70;2.08;;;;;;;;;;5131853;27;20026;-87
2023/07/16 11:47:39;;;;;;;4.32;1.95;;;;;;;;;;5131020;27;20497;-88
2023/07/16 11:50:05;;;;;;;2.63;1.88;;;;;;;;;;5130580;27;20027;-86
2023/07/16 11:52:31;;;;;;;3.53;2.17;;;;;;;;;;5130469;27;20725;-89
2023/07/16 11:55:00;;;;;;;8.25;2.88;;;;;;;;;;5131032;27;20038;-85
2023/07/16 11:57:26;;;;;;;2.50;1.77;;;;;;;;;;5131259;27;20551;-86
2023/07/16 11:59:52;;;;;;;3.40;2.22;;;;;;;;;;5131692;27;20106;-89
2023/07/16 12:02:17;;;;;;;3.88;2.28;;;;;;;;;;5132581;27;20068;-88
2023/07/16 12:04:43;;;;;;;3.30;1.98;;;;;;;;;;5132426;27;20356;-87
2023/07/16 12:07:08;;;;;;;3.58;1.88;;;;;;;;;;5119202;27;20474;-87
2023/07/16 12:09:34;;;;;;;3.63;1.83;;;;;;;;;;5130604;27;20110;-87
2023/07/16 12:12:00;;;;;;;3.10;2.35;;;;;;;;;;5124255;27;20149;-87
2023/07/16 12:14:26;;;;;;;5.13;1.67;;;;;;;;;;5128381;27;20467;-88
2023/07/16 12:16:51;;;;;;;3.42;2.35;;;;;;;;;;5130644;27;20038;-90
2023/07/16 12:19:17;;;;;;;3.50;2.15;;;;;;;;;;5132135;27;20027;-86
2023/07/16 12:21:43;;;;;;;2.40;1.92;;;;;;;;;;5132008;27;20114;-87
2023/07/16 12:24:08;;;;;;;2.47;1.92;;;;;;;;;;5123694;27;20082;-88
2023/07/16 12:26:34;;;;;;;4.45;2.88;;;;;;;;;;5128855;27;20041;-88
2023/07/16 12:29:02;;;;;;;3.22;2.13;;;;;;;;;;5130811;27;20031;-85
2023/07/16 12:31:28;;;;;;;4.63;2.73;;;;;;;;;;5132156;27;20015;-87
2023/07/16 12:33:53;;;;;;;6.90;2.35;;;;;;;;;;5115505;27;20342;-84
2023/07/16 12:36:19;;;;;;;3.08;1.70;;;;;;;;;;5131454;27;20030;-84
2023/07/16 12:38:44;;;;;;;3.67;2.10;;;;;;;;;;5132086;27;20094;-85
2023/07/16 12:41:10;;;;;;;2.95;2.00;;;;;;;;;;5130822;27;20046;-85
2023/07/16 12:43:35;;;;;;;2.88;2.00;;;;;;;;;;5109787;27;20054;-89
2023/07/16 12:46:02;;;;;;;4.57;2.80;;;;;;;;;;5130554;27;20030;-85
2023/07/16 12:48:29;;;;;;;3.50;2.30;;;;;;;;;;5129153;27;20023;-87
2023/07/16 12:50:54;;;;;;;3.55;2.40;;;;;;;;;;5130047;27;20019;-83
2023/07/16 12:53:20;;;;;;;3.05;2.05;;;;;;;;;;5113254;27;20034;-86
2023/07/16 12:55:45;;;;;;;2.80;2.13;;;;;;;;;;5128282;27;20027;-86
2023/07/16 12:58:10;;;;;;;3.58;2.10;;;;;;;;;;5113148;27;20023;-85
2023/07/16 13:00:36;;;;;;;3.08;2.08;;;;;;;;;;5112926;28;20058;-85
2023/07/16 13:03:02;;;;;;;3.67;2.08;;;;;;;;;;5130881;27;20022;-85
2023/07/16 13:05:28;;;;;;;2.63;2.10;;;;;;;;;;5129885;27;20031;-87
2023/07/16 13:07:53;;;;;;;3.70;2.58;;;;;;;;;;5131341;27;20551;-85
2023/07/16 13:10:19;;;;;;;3.22;2.55;;;;;;;;;;5130926;27;20027;-84
2023/07/16 13:12:44;;;;;;;4.53;2.13;;;;;;;;;;5131593;27;20027;-87
2023/07/16 13:15:10;;;;;;;2.45;1.80;;;;;;;;;;5131662;27;20027;-84
2023/07/16 13:17:36;;;;;;;2.88;2.05;;;;;;;;;;5127920;28;20309;-84
2023/07/16 13:20:03;;;;;;;3.63;2.20;;;;;;;;;;5131616;28;20027;-88
2023/07/16 13:22:28;;;;;;;7.13;2.20;;;;;;;;;;5127691;27;20144;-85
2023/07/16 13:24:54;;;;;;;3.20;2.20;;;;;;;;;;5131056;28;20106;-85
2023/07/16 13:27:21;;;;;;;2.78;1.80;;;;;;;;;;5130882;28;20127;-84
2023/07/16 13:29:46;;;;;;;2.95;2.10;;;;;;;;;;5131417;28;20061;-86
2023/07/16 13:32:12;;;;;;;5.75;2.22;;;;;;;;;;5112522;28;20374;-85
2023/07/16 13:34:38;;;;;;;3.13;2.22;;;;;;;;;;5112421;28;20055;-83
2023/07/16 13:37:03;;;;;;;7.20;2.15;;;;;;;;;;5109176;27;20024;-85
2023/07/16 13:39:29;;;;;;;2.92;2.05;;;;;;;;;;5134342;27;20034;-87
2023/07/16 13:41:54;;;;;;;2.70;1.75;;;;;;;;;;5134755;27;20066;-84
2023/07/16 13:44:20;;;;;;;2.88;1.80;;;;;;;;;;5135249;27;20019;-83
2023/07/16 13:46:45;;;;;;;4.38;2.13;;;;;;;;;;5116905;27;20023;-85
2023/07/16 13:49:10;;;;;;;3.10;1.98;;;;;;;;;;5134935;27;20023;-85
2023/07/16 13:51:36;;;;;;;3.60;2.03;;;;;;;;;;5134158;27;20027;-84
2023/07/16 13:54:01;;;;;;;2.95;2.00;;;;;;;;;;5114626;27;20134;-84
2023/07/16 13:56:27;;;;;;;2.28;1.63;;;;;;;;;;5134842;27;20033;-84
2023/07/16 13:58:53;;;;;;;5.78;2.42;;;;;;;;;;5134038;27;20023;-85
2023/07/16 14:01:19;;;;;;;3.00;2.17;;;;;;;;;;5135643;27;20030;-83
2023/07/16 14:03:45;;;;;;;2.38;1.80;;;;;;;;;;5116048;27;20019;-84
2023/07/16 14:06:10;;;;;;;4.03;2.22;;;;;;;;;;5134845;27;20030;-84
2023/07/16 14:08:36;;;;;;;5.65;2.45;;;;;;;;;;5129823;27;20030;-84
2023/07/16 14:11:02;;;;;;;1.98;1.58;;;;;;;;;;5133693;27;20030;-85
2023/07/16 14:13:28;;;;;;;4.40;2.13;;;;;;;;;;5117887;27;20034;-86
2023/07/16 14:15:53;;;;;;;4.35;2.17;;;;;;;;;;5131483;27;20023;-87
2023/07/16 14:18:19;;;;;;;3.15;2.10;;;;;;;;;;5134761;27;20015;-85
2023/07/16 14:20:44;;;;;;;2.30;2.08;;;;;;;;;;5135014;27;20019;-86
2023/07/16 14:23:10;;;;;;;3.25;2.08;;;;;;;;;;5134340;27;20540;-84
2023/07/16 14:25:35;;;;;;;3.03;1.90;;;;;;;;;;5132512;27;20431;-86
2023/07/16 14:28:01;;;;;;;3.10;2.30;;;;;;;;;;5116724;27;20041;-86
2023/07/16 14:30:26;;;;;;;3.70;2.42;;;;;;;;;;5135288;27;20033;-86
2023/07/16 14:32:52;;;;;;;3.55;2.75;;;;;;;;;;5135213;27;20030;-85
2023/07/16 14:35:17;;;;;;;4.00;2.33;;;;;;;;;;5116721;27;20122;-85
2023/07/16 14:37:42;;;;;;;3.45;2.28;;;;;;;;;;5128330;27;20023;-86
2023/07/16 14:40:09;;;;;;;3.70;2.50;;;;;;;;;;5119438;27;20076;-86